Time;durP1;ratioP1;P1;durP2;ratioP2;P2;SDS_P1;SDS_P2;PMS_P1;PMS_P2;Temp;Humidity;BMP_temperature;BMP_pressure;BME280_temperature;BME280_humidity;BME280_pressure;Samples;Min_cycle;Max_cycle;Signal;HPM_P1;HPM_P2
2024/02/02 00:02:41;;;;;;;23.30;7.60;;;;;5.10;102724.00;;;;12642108;23;20195;-81
2024/02/02 00:07:43;;;;;;;24.87;7.40;;;;;5.10;102722.00;;;;12624528;23;20245;-80
2024/02/02 00:12:47;;;;;;;24.40;7.30;;;;;5.10;102717.00;;;;12704819;23;20199;-80
2024/02/02 00:17:49;;;;;;;25.33;7.50;;;;;5.10;102705.00;;;;12680306;23;20199;-80
2024/02/02 00:22:51;;;;;;;22.73;7.43;;;;;5.10;102706.00;;;;12654134;23;20195;-80
2024/02/02 00:27:57;;;;;;;21.00;6.87;;;;;5.10;102707.00;;;;12632240;23;20789;-80
2024/02/02 00:33:01;;;;;;;27.30;6.83;;;;;5.10;102696.00;;;;12631004;23;20219;-80
2024/02/02 00:38:03;;;;;;;25.33;7.40;;;;;5.10;102696.00;;;;12653639;23;20310;-80
2024/02/02 00:43:05;;;;;;;29.10;8.00;;;;;5.10;102686.00;;;;12679751;23;20217;-82
2024/02/02 00:48:07;;;;;;;18.83;6.57;;;;;5.10;102677.00;;;;12655620;23;20230;-80
2024/02/02 00:53:09;;;;;;;31.73;8.70;;;;;5.10;102675.00;;;;12654048;23;20192;-81
2024/02/02 00:58:11;;;;;;;27.33;7.93;;;;;5.20;102682.00;;;;12648365;23;20257;-83
2024/02/02 01:03:13;;;;;;;21.80;6.60;;;;;5.20;102664.00;;;;12652359;23;20195;-81
2024/02/02 01:08:15;;;;;;;22.27;7.07;;;;;5.20;102676.00;;;;12655530;23;20282;-82
2024/02/02 01:13:17;;;;;;;18.70;6.93;;;;;5.20;102667.00;;;;12654146;23;20301;-81
2024/02/02 01:18:19;;;;;;;21.93;7.17;;;;;5.20;102664.00;;;;12666757;23;20191;-80
2024/02/02 01:23:21;;;;;;;23.93;7.37;;;;;5.20;102649.00;;;;12668863;23;20270;-82
2024/02/02 01:28:23;;;;;;;26.90;7.10;;;;;5.10;102657.00;;;;12631546;23;20199;-81
2024/02/02 01:33:25;;;;;;;28.83;8.17;;;;;5.10;102652.00;;;;12655194;23;20253;-80
2024/02/02 01:38:27;;;;;;;24.40;7.33;;;;;5.10;102647.00;;;;12655167;23;20229;-80
2024/02/02 01:43:29;;;;;;;23.47;7.20;;;;;5.10;102649.00;;;;12652020;23;20199;-81
2024/02/02 01:48:31;;;;;;;26.77;7.77;;;;;5.10;102652.00;;;;12678320;23;20195;-81
2024/02/02 01:53:33;;;;;;;21.30;7.27;;;;;5.00;102632.00;;;;12678780;23;20206;-81
2024/02/02 01:58:35;;;;;;;28.43;7.67;;;;;5.00;102619.00;;;;12652627;23;20214;-81
2024/02/02 02:03:37;;;;;;;28.40;7.67;;;;;4.90;102627.00;;;;12630512;23;20188;-80
2024/02/02 02:08:40;;;;;;;30.53;8.73;;;;;4.90;102632.00;;;;12653439;23;20749;-81
2024/02/02 02:13:42;;;;;;;26.43;8.00;;;;;4.90;102633.00;;;;12679978;23;20249;-80
2024/02/02 02:18:44;;;;;;;22.40;8.20;;;;;4.90;102631.00;;;;12657016;23;20203;-81
2024/02/02 02:23:59;;;;;;;23.63;6.87;;;;;4.90;102633.00;;;;12654235;23;20190;-80
2024/02/02 02:29:02;;;;;;;26.50;7.07;;;;;4.90;102638.00;;;;12659398;23;20195;-80
2024/02/02 02:34:04;;;;;;;19.77;6.60;;;;;5.00;102621.00;;;;12633826;23;20188;-82
2024/02/02 02:39:07;;;;;;;19.00;7.73;;;;;5.00;102613.00;;;;12657340;23;20200;-83
2024/02/02 02:44:12;;;;;;;23.23;7.60;;;;;5.00;102605.00;;;;12656257;23;20199;-83
2024/02/02 02:49:14;;;;;;;27.80;8.00;;;;;5.00;102602.00;;;;12681828;23;20187;-82
2024/02/02 02:54:17;;;;;;;22.63;7.87;;;;;5.00;102594.00;;;;12655937;23;20204;-83
2024/02/02 02:59:19;;;;;;;22.40;7.77;;;;;5.00;102575.00;;;;12632945;23;20202;-83
2024/02/02 03:04:21;;;;;;;19.07;7.43;;;;;5.00;102575.00;;;;12631866;23;20828;-83
2024/02/02 03:09:23;;;;;;;26.70;7.63;;;;;5.00;102574.00;;;;12680097;23;20279;-82
2024/02/02 03:14:25;;;;;;;20.13;6.70;;;;;5.00;102578.00;;;;12680590;23;20266;-82
2024/02/02 03:19:27;;;;;;;22.10;7.27;;;;;5.00;102578.00;;;;12631031;23;20199;-83
2024/02/02 03:24:29;;;;;;;20.03;6.80;;;;;5.10;102572.00;;;;12679508;23;20203;-82
2024/02/02 03:29:31;;;;;;;25.40;8.00;;;;;5.10;102558.00;;;;12632773;23;20199;-83
2024/02/02 03:34:33;;;;;;;26.97;7.67;;;;;5.10;102552.00;;;;12655351;23;20673;-83
2024/02/02 03:39:36;;;;;;;25.90;7.90;;;;;5.00;102549.00;;;;12656004;23;20651;-82
2024/02/02 03:44:38;;;;;;;20.27;6.73;;;;;5.00;102542.00;;;;12680303;23;20191;-83
2024/02/02 03:49:40;;;;;;;23.97;7.20;;;;;5.00;102542.00;;;;12655844;23;20198;-83
2024/02/02 03:54:42;;;;;;;30.43;7.13;;;;;5.00;102520.00;;;;12705886;23;20270;-82
2024/02/02 03:59:44;;;;;;;17.60;6.33;;;;;5.00;102532.00;;;;12679959;23;20203;-82
2024/02/02 04:04:46;;;;;;;18.87;6.33;;;;;5.10;102531.00;;;;12631059;23;20839;-83
2024/02/02 04:09:48;;;;;;;24.30;6.67;;;;;5.10;102544.00;;;;12630707;23;20264;-83
2024/02/02 04:14:50;;;;;;;16.57;5.83;;;;;5.10;102543.00;;;;12655530;23;20196;-83
2024/02/02 04:19:52;;;;;;;16.10;6.23;;;;;5.00;102536.00;;;;12679504;23;20209;-82
2024/02/02 04:24:54;;;;;;;18.77;5.87;;;;;5.00;102519.00;;;;12706357;23;20245;-83
2024/02/02 04:29:56;;;;;;;21.83;5.50;;;;;4.80;102505.00;;;;12635557;23;20243;-82
2024/02/02 04:34:58;;;;;;;17.57;5.20;;;;;4.80;102520.00;;;;12704802;23;20187;-81
2024/02/02 04:40:01;;;;;;;19.73;5.77;;;;;4.70;102512.00;;;;12718892;23;20278;-83
2024/02/02 04:45:03;;;;;;;16.07;5.27;;;;;4.70;102505.00;;;;12632704;23;20219;-82
2024/02/02 04:50:05;;;;;;;18.23;5.67;;;;;4.60;102512.00;;;;12631004;23;20188;-83
2024/02/02 04:55:07;;;;;;;22.57;5.47;;;;;4.60;102510.00;;;;12680136;23;20512;-80
2024/02/02 05:00:10;;;;;;;30.33;6.67;;;;;4.50;102503.00;;;;12678027;23;20195;-80
2024/02/02 05:05:12;;;;;;;21.43;5.40;;;;;4.50;102497.00;;;;12631676;23;20804;-80
2024/02/02 05:10:14;;;;;;;18.33;5.50;;;;;4.50;102494.00;;;;12655959;23;20253;-80
2024/02/02 05:15:17;;;;;;;14.50;5.70;;;;;4.50;102483.00;;;;12678788;23;20203;-80
2024/02/02 05:20:19;;;;;;;18.07;5.50;;;;;4.50;102491.00;;;;12654836;23;20199;-80
2024/02/02 05:25:22;;;;;;;21.37;4.73;;;;;4.50;102490.00;;;;12654136;23;20855;-81
2024/02/02 05:30:24;;;;;;;23.17;5.57;;;;;4.50;102494.00;;;;12655266;23;20191;-81
2024/02/02 05:35:26;;;;;;;18.03;4.07;;;;;4.50;102487.00;;;;12653668;23;20206;-81
2024/02/02 05:40:28;;;;;;;19.53;4.20;;;;;4.40;102498.00;;;;12655168;23;20654;-81
2024/02/02 05:45:34;;;;;;;23.13;5.23;;;;;4.50;102493.00;;;;12680761;23;20203;-80
2024/02/02 05:50:36;;;;;;;22.90;4.47;;;;;4.50;102484.00;;;;12679068;23;20731;-80
2024/02/02 05:55:39;;;;;;;19.70;4.53;;;;;4.60;102476.00;;;;12678325;23;20207;-80
2024/02/02 06:00:41;;;;;;;23.70;5.07;;;;;4.60;102473.00;;;;12654558;23;20711;-81
2024/02/02 06:05:43;;;;;;;21.37;4.47;;;;;4.60;102470.00;;;;12653788;23;20843;-81
2024/02/02 06:10:45;;;;;;;18.83;5.27;;;;;4.60;102476.00;;;;12702131;23;20195;-81
2024/02/02 06:15:47;;;;;;;26.40;5.23;;;;;4.60;102483.00;;;;12676200;23;20202;-81
2024/02/02 06:20:49;;;;;;;25.73;9.60;;;;;4.50;102487.00;;;;12652880;23;20821;-83
2024/02/02 06:25:51;;;;;;;25.20;6.80;;;;;4.50;102467.00;;;;12629879;23;20215;-82
2024/02/02 06:30:53;;;;;;;18.03;4.20;;;;;4.50;102479.00;;;;12628895;23;20195;-82
2024/02/02 06:35:55;;;;;;;19.47;5.13;;;;;4.50;102490.00;;;;12675315;23;20765;-80
2024/02/02 06:40:57;;;;;;;17.93;4.83;;;;;4.50;102472.00;;;;12628525;23;20211;-80
2024/02/02 06:45:59;;;;;;;13.70;3.87;;;;;4.50;102468.00;;;;12628843;23;20191;-81
2024/02/02 06:51:01;;;;;;;20.37;4.67;;;;;4.50;102464.00;;;;12652890;23;20578;-81
2024/02/02 06:56:46;;;;;;;18.27;4.40;;;;;4.40;102469.00;;;;12652185;23;20680;-80
2024/02/02 07:01:48;;;;;;;18.13;5.53;;;;;4.40;102464.00;;;;12654797;23;20879;-80
2024/02/02 07:06:50;;;;;;;22.53;5.60;;;;;4.30;102463.00;;;;12681221;23;20192;-80
2024/02/02 07:12:06;;;;;;;11.60;4.00;;;;;4.40;102471.00;;;;12633528;23;20196;-81
2024/02/02 07:17:20;;;;;;;17.67;4.53;;;;;4.30;102479.00;;;;12660048;23;20765;-83
2024/02/02 07:22:32;;;;;;;15.17;3.90;;;;;4.30;102473.00;;;;12665470;23;20195;-82
2024/02/02 07:27:48;;;;;;;15.87;4.33;;;;;4.30;102478.00;;;;12655685;23;20249;-82
2024/02/02 07:32:50;;;;;;;15.10;4.00;;;;;4.40;102499.00;;;;12705212;23;20237;-83
2024/02/02 07:37:52;;;;;;;16.20;3.90;;;;;4.40;102512.00;;;;12631496;23;20271;-83
2024/02/02 07:42:54;;;;;;;19.20;4.37;;;;;4.50;102511.00;;;;12654795;23;20191;-82
2024/02/02 07:47:56;;;;;;;15.73;4.40;;;;;4.50;102517.00;;;;12633718;23;20191;-83
2024/02/02 07:52:58;;;;;;;22.90;4.37;;;;;4.60;102514.00;;;;12655193;23;20195;-82
2024/02/02 07:58:01;;;;;;;17.07;4.83;;;;;4.70;102512.00;;;;12655311;23;20196;-82
2024/02/02 08:03:07;;;;;;;13.40;4.17;;;;;4.80;102513.00;;;;12656252;23;20210;-82
2024/02/02 08:08:12;;;;;;;18.20;4.50;;;;;4.80;102510.00;;;;12633086;23;20219;-82
2024/02/02 08:13:15;;;;;;;18.60;4.33;;;;;4.90;102504.00;;;;12656422;23;20546;-82
2024/02/02 08:18:18;;;;;;;19.37;5.43;;;;;5.00;102503.00;;;;12656379;23;20199;-82
2024/02/02 08:23:20;;;;;;;25.77;6.20;;;;;5.10;102494.00;;;;12654964;23;20210;-82
2024/02/02 08:28:22;;;;;;;13.50;4.40;;;;;5.20;102500.00;;;;12678223;23;20192;-80
2024/02/02 08:33:25;;;;;;;21.30;5.30;;;;;5.40;102503.00;;;;12704377;23;20246;-81
2024/02/02 08:38:27;;;;;;;19.37;7.43;;;;;5.60;102497.00;;;;12631884;23;20265;-81
2024/02/02 08:43:29;;;;;;;25.17;6.53;;;;;5.70;102498.00;;;;12655130;23;20219;-81
2024/02/02 08:48:35;;;;;;;17.43;6.13;;;;;5.80;102496.00;;;;12678410;23;20828;-80
2024/02/02 08:53:36;;;;;;;22.93;7.57;;;;;5.90;102497.00;;;;12678873;23;20195;-80
2024/02/02 08:58:38;;;;;;;25.23;8.37;;;;;6.00;102484.00;;;;12630719;23;20277;-80
2024/02/02 09:03:43;;;;;;;29.00;8.07;;;;;6.00;102479.00;;;;12654620;23;20191;-81
2024/02/02 09:08:47;;;;;;;25.50;9.07;;;;;6.00;102481.00;;;;12679185;23;20200;-81
2024/02/02 09:14:01;;;;;;;38.33;9.80;;;;;6.10;102492.00;;;;12653896;23;20203;-80
2024/02/02 09:19:13;;;;;;;30.47;10.37;;;;;6.10;102494.00;;;;12654976;23;20274;-81
2024/02/02 09:24:40;;;;;;;28.07;8.83;;;;;6.10;102497.00;;;;12653608;23;20501;-81
2024/02/02 09:29:47;;;;;;;26.77;9.63;;;;;6.10;102517.00;;;;12630434;23;20219;-81
2024/02/02 09:34:49;;;;;;;21.33;9.30;;;;;6.30;102502.00;;;;12653007;23;20242;-82
2024/02/02 09:39:56;;;;;;;28.83;10.43;;;;;6.30;102505.00;;;;12679496;23;20203;-83
2024/02/02 09:45:03;;;;;;;25.40;10.37;;;;;6.30;102512.00;;;;12654904;22;20208;-82
2024/02/02 09:50:25;;;;;;;26.67;10.10;;;;;6.40;102507.00;;;;12632271;23;20579;-83
2024/02/02 09:56:05;;;;;;;23.17;10.47;;;;;6.60;102513.00;;;;12653380;23;20207;-81
2024/02/02 10:01:26;;;;;;;33.97;11.17;;;;;6.70;102514.00;;;;12630430;22;20200;-82
2024/02/02 10:07:00;;;;;;;30.40;11.27;;;;;6.70;102515.00;;;;12653232;23;20274;-83
2024/02/02 10:12:18;;;;;;;32.00;10.93;;;;;6.90;102511.00;;;;12630378;23;20270;-81
2024/02/02 10:17:51;;;;;;;35.97;11.63;;;;;7.00;102499.00;;;;12678858;23;20199;-82
2024/02/02 10:23:09;;;;;;;28.70;13.00;;;;;7.20;102506.00;;;;12655072;23;20252;-81
2024/02/02 10:28:23;;;;;;;27.07;12.47;;;;;7.30;102491.00;;;;12608774;23;20214;-83
2024/02/02 10:33:49;;;;;;;30.83;12.70;;;;;7.40;102492.00;;;;12653636;23;20270;-83
2024/02/02 10:39:15;;;;;;;33.77;13.47;;;;;7.50;102499.00;;;;12680693;23;20199;-81
2024/02/02 10:44:32;;;;;;;32.30;12.20;;;;;7.70;102505.00;;;;12657293;22;20205;-81
2024/02/02 10:50:28;;;;;;;36.37;14.27;;;;;7.80;102500.00;;;;12633244;23;20576;-82
2024/02/02 10:55:46;;;;;;;35.53;14.30;;;;;8.00;102499.00;;;;12628966;23;20203;-82
2024/02/02 11:00:59;;;;;;;40.47;15.00;;;;;8.00;102509.00;;;;12633050;23;20760;-82
2024/02/02 11:06:22;;;;;;;40.33;15.03;;;;;8.10;102494.00;;;;12656358;23;20198;-83
2024/02/02 11:11:26;;;;;;;41.67;14.93;;;;;8.10;102495.00;;;;12633919;23;20219;-82
2024/02/02 11:16:45;;;;;;;29.97;13.23;;;;;8.10;102484.00;;;;12656772;23;20207;-82
2024/02/02 11:21:56;;;;;;;34.20;15.70;;;;;8.30;102476.00;;;;12655806;23;20214;-82
2024/02/02 11:27:10;;;;;;;36.87;15.30;;;;;8.40;102455.00;;;;12650704;23;20195;-82
2024/02/02 11:32:49;;;;;;;32.50;15.70;;;;;8.40;102455.00;;;;12626287;23;20206;-82
2024/02/02 11:38:12;;;;;;;35.43;15.33;;;;;8.40;102427.00;;;;12655746;23;20211;-82
2024/02/02 11:43:16;;;;;;;37.77;16.17;;;;;8.50;102435.00;;;;12657467;23;20515;-81
2024/02/02 11:48:31;;;;;;;30.83;14.00;;;;;8.70;102437.00;;;;12677286;23;20222;-82
2024/02/02 11:53:36;;;;;;;35.97;16.07;;;;;8.60;102434.00;;;;12654148;23;20914;-80
2024/02/02 11:58:43;;;;;;;38.13;16.57;;;;;8.80;102411.00;;;;12655085;23;20211;-81
2024/02/02 12:04:17;;;;;;;34.00;16.23;;;;;8.80;102406.00;;;;12679633;23;20198;-81
2024/02/02 12:09:27;;;;;;;40.80;17.03;;;;;9.00;102400.00;;;;12626545;23;20631;-79
2024/02/02 12:14:36;;;;;;;32.67;14.73;;;;;9.00;102412.00;;;;12634484;23;20220;-80
2024/02/02 12:19:37;;;;;;;30.83;15.87;;;;;9.10;102422.00;;;;12631782;23;20490;-80
2024/02/02 12:24:41;;;;;;;29.00;14.40;;;;;9.20;102410.00;;;;12628170;23;20195;-82
2024/02/02 12:29:43;;;;;;;32.57;16.00;;;;;9.30;102410.00;;;;12679418;23;20200;-80
2024/02/02 12:34:45;;;;;;;34.60;15.37;;;;;9.00;102411.00;;;;12678452;23;20297;-80
2024/02/02 12:39:49;;;;;;;35.67;15.63;;;;;9.10;102391.00;;;;12654613;23;20213;-80
2024/02/02 12:44:51;;;;;;;30.87;16.10;;;;;9.00;102384.00;;;;12620810;23;20199;-83
2024/02/02 12:49:56;;;;;;;34.70;16.90;;;;;9.10;102378.00;;;;12643127;23;20279;-82
2024/02/02 12:54:58;;;;;;;30.17;13.40;;;;;9.20;102375.00;;;;12654412;23;20685;-82
2024/02/02 13:00:03;;;;;;;36.73;16.43;;;;;9.10;102362.00;;;;12654100;23;20195;-81
2024/02/02 13:05:10;;;;;;;31.97;16.10;;;;;9.00;102367.00;;;;12630842;23;20191;-83
2024/02/02 13:10:12;;;;;;;30.17;17.00;;;;;9.00;102364.00;;;;12631131;23;20202;-82
2024/02/02 15:05:29;;;;;;;30.23;15.47;;;;;8.70;102258.00;;;;10496165;27;20405;-81
2024/02/02 15:11:05;;;;;;;21.87;13.90;;;;;8.60;102261.00;;;;10461054;27;20867;-82
2024/02/02 15:16:39;;;;;;;28.13;15.30;;;;;8.60;102248.00;;;;10468643;27;20243;-81
2024/02/02 15:22:14;;;;;;;24.90;14.73;;;;;8.50;102251.00;;;;10469831;27;20231;-82
2024/02/02 15:27:49;;;;;;;29.27;15.23;;;;;8.40;102248.00;;;;10570597;27;20231;-81
2024/02/02 15:33:25;;;;;;;27.00;15.20;;;;;8.40;102256.00;;;;10559545;27;20242;-83
2024/02/02 15:38:59;;;;;;;24.77;14.50;;;;;8.40;102261.00;;;;10500347;22;20312;-84
2024/02/02 15:44:54;;;;;;;25.67;14.27;;;;;8.40;102266.00;;;;10389601;28;21130;-83
2024/02/02 15:50:29;;;;;;;25.00;15.20;;;;;8.40;102266.00;;;;10390060;28;20347;-85
2024/02/02 15:56:05;;;;;;;23.67;15.00;;;;;8.30;102276.00;;;;10422092;28;20224;-83
2024/02/02 16:01:39;;;;;;;23.77;15.07;;;;;8.30;102275.00;;;;10380556;28;20221;-82
2024/02/02 16:07:16;;;;;;;28.47;15.83;;;;;8.30;102292.00;;;;10367115;28;20230;-83
2024/02/02 16:12:38;;;;;;;27.43;15.50;;;;;8.30;102298.00;;;;10371079;28;20233;-82
2024/02/02 16:17:39;;;;;;;25.83;15.93;;;;;8.30;102294.00;;;;10388041;28;21695;-83
2024/02/02 16:22:41;;;;;;;22.97;14.90;;;;;8.30;102297.00;;;;10365801;28;20320;-83
2024/02/02 16:27:43;;;;;;;24.90;15.10;;;;;8.40;102282.00;;;;10346102;28;21805;-81
2024/02/02 16:32:44;;;;;;;25.80;16.37;;;;;8.40;102273.00;;;;10346352;28;20245;-82
2024/02/02 16:37:45;;;;;;;26.77;16.13;;;;;8.40;102272.00;;;;10348530;28;20217;-82
2024/02/02 16:42:46;;;;;;;27.17;14.30;;;;;8.40;102273.00;;;;10344487;28;20271;-82
2024/02/02 16:47:48;;;;;;;27.47;15.53;;;;;8.40;102280.00;;;;10346280;28;20283;-82
2024/02/02 16:52:49;;;;;;;21.93;14.57;;;;;8.40;102291.00;;;;10378334;28;20278;-83
2024/02/02 16:57:51;;;;;;;22.77;15.63;;;;;8.50;102289.00;;;;10388384;28;20774;-82
2024/02/02 17:02:53;;;;;;;21.47;14.90;;;;;8.50;102293.00;;;;10393674;28;20327;-83
2024/02/02 17:07:54;;;;;;;24.37;13.83;;;;;8.50;102288.00;;;;10381427;28;20229;-81
2024/02/02 17:12:56;;;;;;;23.73;16.13;;;;;8.50;102299.00;;;;10397616;28;20232;-82
2024/02/02 17:17:57;;;;;;;27.63;16.33;;;;;8.50;102309.00;;;;10400941;28;20903;-83
2024/02/02 17:22:59;;;;;;;22.87;15.60;;;;;8.60;102296.00;;;;10368267;28;20701;-83
2024/02/02 17:28:01;;;;;;;24.27;16.20;;;;;8.60;102304.00;;;;10360846;28;20229;-83
2024/02/02 17:33:06;;;;;;;24.73;15.40;;;;;8.60;102303.00;;;;10402271;28;20309;-83
2024/02/02 17:38:08;;;;;;;23.83;15.33;;;;;8.60;102308.00;;;;10407933;28;21170;-82
2024/02/02 17:43:11;;;;;;;22.53;16.27;;;;;8.70;102318.00;;;;10393550;28;20243;-82
2024/02/02 17:48:12;;;;;;;23.60;16.77;;;;;8.70;102310.00;;;;10382897;28;20324;-82
2024/02/02 17:53:13;;;;;;;27.57;18.40;;;;;8.70;102303.00;;;;10401259;28;20236;-82
2024/02/02 17:58:15;;;;;;;27.83;17.20;;;;;8.70;102303.00;;;;10415701;28;20229;-82
2024/02/02 18:03:16;;;;;;;24.97;17.53;;;;;8.70;102300.00;;;;10427178;28;20232;-83
2024/02/02 18:08:17;;;;;;;26.07;17.40;;;;;8.70;102301.00;;;;10378623;28;20251;-82
2024/02/02 18:13:22;;;;;;;25.47;17.63;;;;;8.70;102304.00;;;;10393016;28;20270;-82
2024/02/02 18:18:23;;;;;;;22.03;15.83;;;;;8.70;102298.00;;;;10395816;28;20740;-83
2024/02/02 18:23:28;;;;;;;22.07;16.10;;;;;8.80;102300.00;;;;10393429;28;20255;-83
2024/02/02 18:28:29;;;;;;;17.87;14.80;;;;;8.80;102296.00;;;;10389399;28;20435;-83
2024/02/02 18:33:30;;;;;;;18.07;14.73;;;;;8.90;102289.00;;;;10372696;28;20216;-82
2024/02/02 18:38:32;;;;;;;17.17;13.93;;;;;8.90;102276.00;;;;10367218;28;20223;-82
2024/02/02 18:43:33;;;;;;;17.97;13.57;;;;;9.00;102283.00;;;;10395720;28;20237;-82
2024/02/02 18:48:35;;;;;;;13.57;12.13;;;;;9.00;102284.00;;;;10494940;28;20238;-82
2024/02/02 18:53:41;;;;;;;19.63;13.37;;;;;9.10;102298.00;;;;10479098;28;20327;-82
2024/02/02 18:58:44;;;;;;;13.90;12.33;;;;;9.10;102308.00;;;;10395181;28;20239;-82
2024/02/02 19:03:47;;;;;;;12.33;10.63;;;;;9.20;102306.00;;;;10392580;28;20313;-82
2024/02/02 19:08:49;;;;;;;11.97;9.63;;;;;9.20;102311.00;;;;10389341;28;20319;-82
2024/02/02 19:13:50;;;;;;;10.17;8.23;;;;;9.20;102302.00;;;;10411369;28;21277;-82
2024/02/02 19:18:51;;;;;;;9.90;8.90;;;;;9.30;102307.00;;;;10374589;28;20316;-82
2024/02/02 19:23:54;;;;;;;9.67;8.67;;;;;9.30;102313.00;;;;10387046;28;20239;-81
2024/02/02 19:28:55;;;;;;;9.30;8.17;;;;;9.30;102312.00;;;;10394883;28;20248;-81
2024/02/02 19:33:56;;;;;;;8.97;8.07;;;;;9.40;102324.00;;;;10383308;28;20221;-81
2024/02/02 19:38:58;;;;;;;8.07;7.27;;;;;9.40;102315.00;;;;10395264;28;20252;-82
2024/02/02 19:44:00;;;;;;;9.50;8.07;;;;;9.40;102311.00;;;;10407147;28;20316;-82
2024/02/02 19:49:02;;;;;;;9.30;8.50;;;;;9.50;102312.00;;;;10385956;28;20255;-82
2024/02/02 19:54:04;;;;;;;8.80;7.97;;;;;9.50;102305.00;;;;10391101;28;20316;-81
2024/02/02 19:59:05;;;;;;;8.77;7.60;;;;;9.40;102319.00;;;;10394412;28;20220;-82
2024/02/02 20:04:06;;;;;;;7.93;7.23;;;;;9.50;102329.00;;;;10389475;28;20854;-86
2024/02/02 20:09:09;;;;;;;8.43;7.63;;;;;9.50;102327.00;;;;10421662;28;20235;-82
2024/02/02 20:14:10;;;;;;;8.03;7.23;;;;;9.50;102337.00;;;;10416820;28;20434;-82
2024/02/02 20:19:11;;;;;;;7.77;7.07;;;;;9.50;102345.00;;;;10372296;28;21860;-82
2024/02/02 20:24:13;;;;;;;8.00;7.30;;;;;9.50;102357.00;;;;10394741;28;20243;-82
2024/02/02 20:29:16;;;;;;;8.33;7.40;;;;;9.50;102363.00;;;;10384335;28;20236;-83
2024/02/02 20:34:17;;;;;;;9.20;8.13;;;;;9.50;102361.00;;;;10376482;28;20430;-82
2024/02/02 20:39:19;;;;;;;8.03;6.17;;;;;9.50;102360.00;;;;10375276;28;20940;-83
2024/02/02 20:44:20;;;;;;;7.43;6.73;;;;;9.50;102365.00;;;;10372903;28;20244;-82
2024/02/02 20:49:21;;;;;;;6.43;5.73;;;;;9.50;102358.00;;;;10394780;28;20232;-82
2024/02/02 20:54:23;;;;;;;5.83;5.33;;;;;9.50;102366.00;;;;10382064;28;20244;-82
2024/02/02 20:59:25;;;;;;;6.10;5.50;;;;;9.50;102364.00;;;;10384285;28;20264;-82
2024/02/02 21:04:26;;;;;;;8.47;5.90;;;;;9.60;102362.00;;;;10387047;28;20260;-83
2024/02/02 21:09:28;;;;;;;6.60;6.00;;;;;9.50;102364.00;;;;10396921;28;20226;-82
2024/02/02 21:14:29;;;;;;;7.43;6.00;;;;;9.50;102361.00;;;;10394615;28;21614;-83
2024/02/02 21:19:31;;;;;;;6.10;5.53;;;;;9.50;102358.00;;;;10383539;28;20271;-83
2024/02/02 21:24:33;;;;;;;7.23;6.10;;;;;9.50;102358.00;;;;10387531;28;20232;-82
2024/02/02 21:29:34;;;;;;;6.43;5.63;;;;;9.50;102362.00;;;;10399111;28;20229;-82
2024/02/02 21:34:36;;;;;;;6.00;5.40;;;;;9.50;102374.00;;;;10401144;28;20235;-82
2024/02/02 21:39:38;;;;;;;6.40;5.63;;;;;9.50;102367.00;;;;10400547;28;21752;-82
2024/02/02 21:44:40;;;;;;;6.50;5.70;;;;;9.50;102371.00;;;;10375826;28;20228;-82
2024/02/02 21:49:41;;;;;;;5.97;5.47;;;;;9.50;102362.00;;;;10396234;28;20307;-82
2024/02/02 21:54:54;;;;;;;5.57;5.07;;;;;9.50;102370.00;;;;10399671;28;20232;-82
2024/02/02 21:59:55;;;;;;;6.43;5.83;;;;;9.50;102366.00;;;;10466301;28;20201;-81
2024/02/02 22:04:56;;;;;;;6.47;5.87;;;;;9.50;102362.00;;;;10480458;28;20225;-84
2024/02/02 22:09:59;;;;;;;6.13;5.53;;;;;9.50;102364.00;;;;10424883;28;20220;-83
2024/02/02 22:15:01;;;;;;;7.43;5.57;;;;;9.50;102353.00;;;;10377387;28;20232;-83
2024/02/02 22:20:08;;;;;;;7.80;6.33;;;;;9.40;102367.00;;;;10382874;28;20236;-83
2024/02/02 22:25:09;;;;;;;8.50;6.10;;;;;9.40;102354.00;;;;10377966;28;20279;-83
2024/02/02 22:30:11;;;;;;;8.53;6.00;;;;;9.40;102351.00;;;;10391108;28;21844;-83
2024/02/02 22:35:12;;;;;;;13.50;7.97;;;;;9.40;102352.00;;;;10389005;28;22052;-83
2024/02/02 22:40:13;;;;;;;7.67;6.43;;;;;9.40;102349.00;;;;10379576;28;20236;-84
2024/02/02 22:45:15;;;;;;;7.23;6.53;;;;;9.40;102334.00;;;;10399654;28;21099;-83
2024/02/02 22:50:17;;;;;;;7.67;6.40;;;;;9.40;102328.00;;;;10381386;28;20224;-83
2024/02/02 22:55:19;;;;;;;11.47;6.77;;;;;9.40;102322.00;;;;10394598;28;20239;-83
2024/02/02 23:00:21;;;;;;;12.77;6.53;;;;;9.40;102338.00;;;;10414339;28;20615;-83
2024/02/02 23:05:22;;;;;;;7.20;5.93;;;;;9.40;102332.00;;;;10400196;28;20267;-83
2024/02/02 23:10:23;;;;;;;7.30;5.87;;;;;9.40;102334.00;;;;10395038;28;20233;-83
2024/02/02 23:15:25;;;;;;;9.57;6.83;;;;;9.40;102337.00;;;;10397360;28;20221;-83
2024/02/02 23:20:26;;;;;;;8.03;6.63;;;;;9.40;102342.00;;;;10420131;28;20259;-83
2024/02/02 23:25:28;;;;;;;9.07;6.60;;;;;9.40;102345.00;;;;10395755;28;20270;-83
2024/02/02 23:30:29;;;;;;;10.17;6.43;;;;;9.40;102339.00;;;;10405272;28;20233;-82
2024/02/02 23:35:30;;;;;;;8.00;6.80;;;;;9.40;102339.00;;;;10380704;28;20426;-82
2024/02/02 23:40:32;;;;;;;8.17;6.67;;;;;9.40;102332.00;;;;10402051;28;20256;-83
2024/02/02 23:45:33;;;;;;;8.70;6.70;;;;;9.40;102321.00;;;;10399404;28;20268;-84
2024/02/02 23:50:35;;;;;;;8.23;7.40;;;;;9.30;102330.00;;;;10403708;28;20209;-82
2024/02/02 23:55:36;;;;;;;19.33;14.40;;;;;9.30;102329.00;;;;10399375;28;20235;-83
